CheckWX is a tool to help pilots better visualize weather data.  It is not intended as a substitute for an official pre-flight weather briefing.

01:33:30 UTC

CYYY METAR
Mont Joli Airport
Mont-Joli, Canada
Current

34 mins ago

CYYY 200100Z 17004KT 10SM FEW025 SCT035TCU BKN100 18/16 A2958 RMK CF1TCU3AC2 SLP017 DENSITY ALT 1000FT
Observed
Jul-20 @ 01:00 UTC
Wind
  • 170° at 4 KTS
Visibility
10 SM
Flight Rules
VFR
Cloud Levels
  • Few at 2,500' AGL
  • Scattered at 3,500' AGL
  • Broken at 10,000' AGL
Temperature
18°C / 64°F
Dewpoint
16°C / 61°F
Humidity
88%
Altimeter
29.58" Hg
Pressure
1001.72 hPa
Previous

48 mins ago

CYYY 200046Z 15005KT 10SM FEW035TCU FEW085 BKN100 17/16 A2957 RMK TCU1AC1AC3 SLP016 DENSITY ALT 900FT
Observed
Jul-20 @ 00:46 UTC
Wind
  • 150° at 5 KTS
Visibility
10 SM
Flight Rules
VFR
Cloud Levels
  • Few at 3,500' AGL
  • Few at 8,500' AGL
  • Broken at 10,000' AGL
Temperature
17°C / 63°F
Dewpoint
16°C / 61°F
Humidity
94%
Altimeter
29.57" Hg
Pressure
1001.32 hPa
Previous

1 hour ago

CYYY 200008Z 07003KT 050V120 10SM -SHRA FEW025 SCT035TCU BKN100 17/16 A2960 RMK CF1TCU3AC2 SLP025 DENSITY ALT 900FT
Observed
Jul-20 @ 00:08 UTC
Wind
  • 070° at 3 KTS
Visibility
10 SM
Flight Rules
VFR
Conditions
Light Rain
Cloud Levels
  • Few at 2,500' AGL
  • Scattered at 3,500' AGL
  • Broken at 10,000' AGL
Temperature
17°C / 63°F
Dewpoint
16°C / 61°F
Humidity
94%
Altimeter
29.6" Hg
Pressure
1002.42 hPa